sensor_id;sensor_type;location;lat;lon;timestamp;temperature;humidity
39493;DHT22;25176;51.060;3.720;2022-10-16T00:00:29;15.50;99.90
39493;DHT22;25176;51.060;3.720;2022-10-16T00:02:55;15.40;99.90
39493;DHT22;25176;51.060;3.720;2022-10-16T00:05:20;15.50;99.90
39493;DHT22;25176;51.060;3.720;2022-10-16T00:07:46;15.50;99.90
39493;DHT22;25176;51.060;3.720;2022-10-16T00:10:11;15.40;99.90
39493;DHT22;25176;51.060;3.720;2022-10-16T00:12:37;15.40;99.90
39493;DHT22;25176;51.060;3.720;2022-10-16T00:15:02;15.40;99.90
39493;DHT22;25176;51.060;3.720;2022-10-16T00:17:29;15.40;99.90
39493;DHT22;25176;51.060;3.720;2022-10-16T00:19:54;15.30;99.90
39493;DHT22;25176;51.060;3.720;2022-10-16T00:22:20;15.20;99.90
39493;DHT22;25176;51.060;3.720;2022-10-16T00:24:45;15.20;99.90
39493;DHT22;25176;51.060;3.720;2022-10-16T00:27:11;15.10;99.90
39493;DHT22;25176;51.060;3.720;2022-10-16T00:29:36;15.10;99.90
39493;DHT22;25176;51.060;3.720;2022-10-16T00:32:01;15.00;99.90
39493;DHT22;25176;51.060;3.720;2022-10-16T00:34:27;15.00;99.90
39493;DHT22;25176;51.060;3.720;2022-10-16T00:36:52;15.10;99.90
39493;DHT22;25176;51.060;3.720;2022-10-16T00:39:18;15.10;99.90
39493;DHT22;25176;51.060;3.720;2022-10-16T00:41:44;15.10;99.90
39493;DHT22;25176;51.060;3.720;2022-10-16T00:46:54;15.10;99.90
39493;DHT22;25176;51.060;3.720;2022-10-16T00:49:20;15.00;99.90
39493;DHT22;25176;51.060;3.720;2022-10-16T00:51:46;15.00;99.90
39493;DHT22;25176;51.060;3.720;2022-10-16T00:54:26;15.00;99.90
39493;DHT22;25176;51.060;3.720;2022-10-16T00:56:53;15.00;99.90
39493;DHT22;25176;51.060;3.720;2022-10-16T00:59:23;15.00;99.90
39493;DHT22;25176;51.060;3.720;2022-10-16T01:01:50;15.00;99.90
39493;DHT22;25176;51.060;3.720;2022-10-16T01:04:15;15.00;99.90
39493;DHT22;25176;51.060;3.720;2022-10-16T01:12:07;15.00;99.90
39493;DHT22;25176;51.060;3.720;2022-10-16T01:14:57;15.00;99.90
39493;DHT22;25176;51.060;3.720;2022-10-16T01:17:41;14.90;99.90
39493;DHT22;25176;51.060;3.720;2022-10-16T01:22:38;15.00;99.90
39493;DHT22;25176;51.060;3.720;2022-10-16T01:25:05;14.90;99.90
39493;DHT22;25176;51.060;3.720;2022-10-16T01:27:33;14.80;99.90
39493;DHT22;25176;51.060;3.720;2022-10-16T01:30:10;14.90;99.90
39493;DHT22;25176;51.060;3.720;2022-10-16T01:32:40;14.90;99.90
39493;DHT22;25176;51.060;3.720;2022-10-16T01:35:19;14.90;99.90
39493;DHT22;25176;51.060;3.720;2022-10-16T01:37:47;14.90;99.90
39493;DHT22;25176;51.060;3.720;2022-10-16T01:40:14;14.80;99.90
39493;DHT22;25176;51.060;3.720;2022-10-16T01:42:41;14.90;99.90
39493;DHT22;25176;51.060;3.720;2022-10-16T01:45:08;14.90;99.90
39493;DHT22;25176;51.060;3.720;2022-10-16T01:47:36;14.80;99.90
39493;DHT22;25176;51.060;3.720;2022-10-16T01:50:03;14.80;99.90
39493;DHT22;25176;51.060;3.720;2022-10-16T01:52:30;14.80;99.90
39493;DHT22;25176;51.060;3.720;2022-10-16T01:54:57;14.80;99.90
39493;DHT22;25176;51.060;3.720;2022-10-16T01:57:23;14.80;99.90
39493;DHT22;25176;51.060;3.720;2022-10-16T01:59:50;14.70;99.90
39493;DHT22;25176;51.060;3.720;2022-10-16T02:02:18;14.70;99.90
39493;DHT22;25176;51.060;3.720;2022-10-16T02:04:55;14.70;99.90
39493;DHT22;25176;51.060;3.720;2022-10-16T02:07:22;14.70;99.90
39493;DHT22;25176;51.060;3.720;2022-10-16T02:09:47;14.70;99.90
39493;DHT22;25176;51.060;3.720;2022-10-16T02:12:24;14.80;99.90
39493;DHT22;25176;51.060;3.720;2022-10-16T02:14:51;14.70;99.90
39493;DHT22;25176;51.060;3.720;2022-10-16T02:17:17;14.60;99.90
39493;DHT22;25176;51.060;3.720;2022-10-16T02:19:43;14.60;99.90
39493;DHT22;25176;51.060;3.720;2022-10-16T02:22:11;14.60;99.90
39493;DHT22;25176;51.060;3.720;2022-10-16T02:24:39;14.60;99.90
39493;DHT22;25176;51.060;3.720;2022-10-16T02:27:22;14.70;99.90
39493;DHT22;25176;51.060;3.720;2022-10-16T02:29:52;14.60;99.90
39493;DHT22;25176;51.060;3.720;2022-10-16T02:32:20;14.60;99.90
39493;DHT22;25176;51.060;3.720;2022-10-16T02:34:47;14.70;99.90
39493;DHT22;25176;51.060;3.720;2022-10-16T02:37:13;14.70;99.90
39493;DHT22;25176;51.060;3.720;2022-10-16T02:39:39;14.70;99.90
39493;DHT22;25176;51.060;3.720;2022-10-16T02:42:09;14.80;99.90
39493;DHT22;25176;51.060;3.720;2022-10-16T02:44:35;14.80;99.90
39493;DHT22;25176;51.060;3.720;2022-10-16T02:47:00;14.70;99.90
39493;DHT22;25176;51.060;3.720;2022-10-16T02:49:26;14.70;99.90
39493;DHT22;25176;51.060;3.720;2022-10-16T02:51:51;14.70;99.90
39493;DHT22;25176;51.060;3.720;2022-10-16T02:54:17;14.70;99.90
39493;DHT22;25176;51.060;3.720;2022-10-16T02:56:42;14.70;99.90
39493;DHT22;25176;51.060;3.720;2022-10-16T02:59:07;14.60;99.90
39493;DHT22;25176;51.060;3.720;2022-10-16T03:01:33;14.60;99.90
39493;DHT22;25176;51.060;3.720;2022-10-16T03:03:59;14.60;99.90
39493;DHT22;25176;51.060;3.720;2022-10-16T03:06:24;14.60;99.90
39493;DHT22;25176;51.060;3.720;2022-10-16T03:08:50;14.60;99.90
39493;DHT22;25176;51.060;3.720;2022-10-16T03:11:15;14.60;99.90
39493;DHT22;25176;51.060;3.720;2022-10-16T03:13:41;14.60;99.90
39493;DHT22;25176;51.060;3.720;2022-10-16T03:16:06;14.60;99.90
39493;DHT22;25176;51.060;3.720;2022-10-16T03:18:31;14.60;99.90
39493;DHT22;25176;51.060;3.720;2022-10-16T03:20:57;14.70;99.90
39493;DHT22;25176;51.060;3.720;2022-10-16T03:23:22;14.60;99.90
39493;DHT22;25176;51.060;3.720;2022-10-16T03:25:48;14.70;99.90
39493;DHT22;25176;51.060;3.720;2022-10-16T03:28:13;14.60;99.90
39493;DHT22;25176;51.060;3.720;2022-10-16T03:30:39;14.60;99.90
39493;DHT22;25176;51.060;3.720;2022-10-16T03:33:05;14.60;99.90
39493;DHT22;25176;51.060;3.720;2022-10-16T03:35:30;14.60;99.90
39493;DHT22;25176;51.060;3.720;2022-10-16T03:37:56;14.60;99.90
39493;DHT22;25176;51.060;3.720;2022-10-16T03:40:21;14.50;99.90
39493;DHT22;25176;51.060;3.720;2022-10-16T03:42:47;14.40;99.90
39493;DHT22;25176;51.060;3.720;2022-10-16T03:45:12;14.40;99.90
39493;DHT22;25176;51.060;3.720;2022-10-16T03:47:38;14.50;99.90
39493;DHT22;25176;51.060;3.720;2022-10-16T03:50:03;14.40;99.90
39493;DHT22;25176;51.060;3.720;2022-10-16T03:52:29;14.50;99.90
39493;DHT22;25176;51.060;3.720;2022-10-16T03:54:55;14.50;99.90
39493;DHT22;25176;51.060;3.720;2022-10-16T03:57:21;14.50;99.90
39493;DHT22;25176;51.060;3.720;2022-10-16T03:59:46;14.50;99.90
39493;DHT22;25176;51.060;3.720;2022-10-16T04:02:12;14.40;99.90
39493;DHT22;25176;51.060;3.720;2022-10-16T04:04:37;14.40;99.90
39493;DHT22;25176;51.060;3.720;2022-10-16T04:07:03;14.50;99.90
39493;DHT22;25176;51.060;3.720;2022-10-16T04:09:29;14.60;99.90
39493;DHT22;25176;51.060;3.720;2022-10-16T04:11:54;14.50;99.90
39493;DHT22;25176;51.060;3.720;2022-10-16T04:14:20;14.50;99.90
39493;DHT22;25176;51.060;3.720;2022-10-16T04:16:45;14.50;99.90
39493;DHT22;25176;51.060;3.720;2022-10-16T04:19:11;14.40;99.90
39493;DHT22;25176;51.060;3.720;2022-10-16T04:21:36;14.30;99.90
39493;DHT22;25176;51.060;3.720;2022-10-16T04:24:02;14.30;99.90
39493;DHT22;25176;51.060;3.720;2022-10-16T04:26:28;14.20;99.90
39493;DHT22;25176;51.060;3.720;2022-10-16T04:28:53;14.20;99.90
39493;DHT22;25176;51.060;3.720;2022-10-16T04:31:19;14.20;99.90
39493;DHT22;25176;51.060;3.720;2022-10-16T04:33:44;14.30;99.90
39493;DHT22;25176;51.060;3.720;2022-10-16T04:36:10;14.20;99.90
39493;DHT22;25176;51.060;3.720;2022-10-16T04:38:35;14.20;99.90
39493;DHT22;25176;51.060;3.720;2022-10-16T04:41:03;14.30;99.90
39493;DHT22;25176;51.060;3.720;2022-10-16T04:43:28;14.30;99.90
39493;DHT22;25176;51.060;3.720;2022-10-16T04:45:54;14.30;99.90
39493;DHT22;25176;51.060;3.720;2022-10-16T04:48:20;14.20;99.90
39493;DHT22;25176;51.060;3.720;2022-10-16T04:50:45;14.20;99.90
39493;DHT22;25176;51.060;3.720;2022-10-16T04:53:10;14.20;99.90
39493;DHT22;25176;51.060;3.720;2022-10-16T04:55:36;14.20;99.90
39493;DHT22;25176;51.060;3.720;2022-10-16T04:58:02;14.10;99.90
39493;DHT22;25176;51.060;3.720;2022-10-16T05:00:28;14.10;99.90
39493;DHT22;25176;51.060;3.720;2022-10-16T05:02:53;14.10;99.90
39493;DHT22;25176;51.060;3.720;2022-10-16T05:05:19;14.20;99.90
39493;DHT22;25176;51.060;3.720;2022-10-16T05:07:48;14.20;99.90
39493;DHT22;25176;51.060;3.720;2022-10-16T05:10:14;14.20;99.90
39493;DHT22;25176;51.060;3.720;2022-10-16T05:12:40;14.30;99.90
39493;DHT22;25176;51.060;3.720;2022-10-16T05:15:06;14.30;99.90
39493;DHT22;25176;51.060;3.720;2022-10-16T05:17:31;14.30;99.90
39493;DHT22;25176;51.060;3.720;2022-10-16T05:19:57;14.30;99.90
39493;DHT22;25176;51.060;3.720;2022-10-16T05:22:22;14.40;99.90
39493;DHT22;25176;51.060;3.720;2022-10-16T05:24:47;14.30;99.90
39493;DHT22;25176;51.060;3.720;2022-10-16T05:27:13;14.30;99.90
39493;DHT22;25176;51.060;3.720;2022-10-16T05:29:44;14.40;99.90
39493;DHT22;25176;51.060;3.720;2022-10-16T05:32:10;14.40;99.90
39493;DHT22;25176;51.060;3.720;2022-10-16T05:34:36;14.50;99.90
39493;DHT22;25176;51.060;3.720;2022-10-16T05:37:02;14.60;99.90
39493;DHT22;25176;51.060;3.720;2022-10-16T05:39:27;14.60;99.90
39493;DHT22;25176;51.060;3.720;2022-10-16T05:41:53;14.70;99.90
39493;DHT22;25176;51.060;3.720;2022-10-16T05:44:18;14.70;99.90
39493;DHT22;25176;51.060;3.720;2022-10-16T05:46:43;14.60;99.90
39493;DHT22;25176;51.060;3.720;2022-10-16T05:49:11;14.70;99.90
39493;DHT22;25176;51.060;3.720;2022-10-16T05:51:36;14.60;99.90
39493;DHT22;25176;51.060;3.720;2022-10-16T05:54:01;14.70;99.90
39493;DHT22;25176;51.060;3.720;2022-10-16T05:56:27;14.50;99.90
39493;DHT22;25176;51.060;3.720;2022-10-16T05:58:53;14.50;99.90
39493;DHT22;25176;51.060;3.720;2022-10-16T06:01:19;14.40;99.90
39493;DHT22;25176;51.060;3.720;2022-10-16T06:03:46;14.40;99.90
39493;DHT22;25176;51.060;3.720;2022-10-16T06:06:12;14.40;99.90
39493;DHT22;25176;51.060;3.720;2022-10-16T06:08:38;14.30;99.90
39493;DHT22;25176;51.060;3.720;2022-10-16T06:11:05;14.30;99.90
39493;DHT22;25176;51.060;3.720;2022-10-16T06:13:31;14.20;99.90
39493;DHT22;25176;51.060;3.720;2022-10-16T06:15:57;14.30;99.90
39493;DHT22;25176;51.060;3.720;2022-10-16T06:18:22;14.30;99.90
39493;DHT22;25176;51.060;3.720;2022-10-16T06:20:48;14.30;99.90
39493;DHT22;25176;51.060;3.720;2022-10-16T06:23:14;14.40;99.90
39493;DHT22;25176;51.060;3.720;2022-10-16T06:25:39;14.20;99.90
39493;DHT22;25176;51.060;3.720;2022-10-16T06:28:05;14.20;99.90
39493;DHT22;25176;51.060;3.720;2022-10-16T06:30:30;14.30;99.90
39493;DHT22;25176;51.060;3.720;2022-10-16T06:32:55;14.30;99.90
39493;DHT22;25176;51.060;3.720;2022-10-16T06:35:21;14.30;99.90
39493;DHT22;25176;51.060;3.720;2022-10-16T06:37:47;14.40;99.90
39493;DHT22;25176;51.060;3.720;2022-10-16T06:40:12;14.50;99.90
39493;DHT22;25176;51.060;3.720;2022-10-16T06:42:40;14.50;99.90
39493;DHT22;25176;51.060;3.720;2022-10-16T06:45:05;14.40;99.90
39493;DHT22;25176;51.060;3.720;2022-10-16T06:47:31;14.40;99.90
39493;DHT22;25176;51.060;3.720;2022-10-16T06:49:56;14.40;99.90
39493;DHT22;25176;51.060;3.720;2022-10-16T06:52:22;14.40;99.90
39493;DHT22;25176;51.060;3.720;2022-10-16T06:54:47;14.50;99.90
39493;DHT22;25176;51.060;3.720;2022-10-16T06:57:13;14.50;99.90
39493;DHT22;25176;51.060;3.720;2022-10-16T06:59:38;14.50;99.90
39493;DHT22;25176;51.060;3.720;2022-10-16T07:02:04;14.50;99.90
39493;DHT22;25176;51.060;3.720;2022-10-16T07:04:30;14.60;99.90
39493;DHT22;25176;51.060;3.720;2022-10-16T07:06:56;14.60;99.90
39493;DHT22;25176;51.060;3.720;2022-10-16T07:09:21;14.60;99.90
39493;DHT22;25176;51.060;3.720;2022-10-16T07:11:47;14.50;99.90
39493;DHT22;25176;51.060;3.720;2022-10-16T07:14:14;14.50;99.90
39493;DHT22;25176;51.060;3.720;2022-10-16T07:16:40;14.50;99.90
39493;DHT22;25176;51.060;3.720;2022-10-16T07:19:05;14.50;99.90
39493;DHT22;25176;51.060;3.720;2022-10-16T07:21:32;14.50;99.90
39493;DHT22;25176;51.060;3.720;2022-10-16T07:24:00;14.60;99.90
39493;DHT22;25176;51.060;3.720;2022-10-16T07:26:29;14.60;99.90
39493;DHT22;25176;51.060;3.720;2022-10-16T07:28:55;14.60;99.90
39493;DHT22;25176;51.060;3.720;2022-10-16T07:31:22;14.60;99.90
39493;DHT22;25176;51.060;3.720;2022-10-16T07:33:48;14.60;99.90
39493;DHT22;25176;51.060;3.720;2022-10-16T07:36:14;14.60;99.90
39493;DHT22;25176;51.060;3.720;2022-10-16T07:38:40;14.60;99.90
39493;DHT22;25176;51.060;3.720;2022-10-16T07:41:08;14.60;99.90
39493;DHT22;25176;51.060;3.720;2022-10-16T07:43:34;14.60;99.90
39493;DHT22;25176;51.060;3.720;2022-10-16T07:46:00;14.70;99.90
39493;DHT22;25176;51.060;3.720;2022-10-16T07:48:29;14.70;99.90
39493;DHT22;25176;51.060;3.720;2022-10-16T07:50:58;14.80;99.90
39493;DHT22;25176;51.060;3.720;2022-10-16T07:53:24;15.00;99.90
39493;DHT22;25176;51.060;3.720;2022-10-16T07:55:50;15.00;99.90
39493;DHT22;25176;51.060;3.720;2022-10-16T07:58:15;15.10;99.90
39493;DHT22;25176;51.060;3.720;2022-10-16T08:00:41;15.20;99.90
39493;DHT22;25176;51.060;3.720;2022-10-16T08:03:06;15.20;99.90
39493;DHT22;25176;51.060;3.720;2022-10-16T08:05:32;15.20;99.90
39493;DHT22;25176;51.060;3.720;2022-10-16T08:07:57;15.20;99.90
39493;DHT22;25176;51.060;3.720;2022-10-16T08:10:24;15.30;99.90
39493;DHT22;25176;51.060;3.720;2022-10-16T08:12:50;15.60;99.90
39493;DHT22;25176;51.060;3.720;2022-10-16T08:15:16;15.60;99.90
39493;DHT22;25176;51.060;3.720;2022-10-16T08:17:41;15.90;99.90
39493;DHT22;25176;51.060;3.720;2022-10-16T08:20:07;16.40;99.90
39493;DHT22;25176;51.060;3.720;2022-10-16T08:22:33;17.10;99.90
39493;DHT22;25176;51.060;3.720;2022-10-16T08:24:58;17.70;99.90
39493;DHT22;25176;51.060;3.720;2022-10-16T08:27:23;19.10;99.90
39493;DHT22;25176;51.060;3.720;2022-10-16T08:29:49;21.80;98.60
39493;DHT22;25176;51.060;3.720;2022-10-16T08:32:15;24.60;93.50
39493;DHT22;25176;51.060;3.720;2022-10-16T08:34:40;26.10;90.10
39493;DHT22;25176;51.060;3.720;2022-10-16T08:37:06;27.30;82.40
39493;DHT22;25176;51.060;3.720;2022-10-16T08:39:33;28.60;79.10
39493;DHT22;25176;51.060;3.720;2022-10-16T08:42:11;29.40;74.60
39493;DHT22;25176;51.060;3.720;2022-10-16T08:47:26;32.10;65.90
39493;DHT22;25176;51.060;3.720;2022-10-16T08:50:02;33.30;61.30
39493;DHT22;25176;51.060;3.720;2022-10-16T08:52:34;33.80;59.00
39493;DHT22;25176;51.060;3.720;2022-10-16T08:55:00;33.50;58.90
39493;DHT22;25176;51.060;3.720;2022-10-16T08:57:27;33.10;57.30
39493;DHT22;25176;51.060;3.720;2022-10-16T08:59:52;32.60;58.00
39493;DHT22;25176;51.060;3.720;2022-10-16T09:02:32;32.10;57.80
39493;DHT22;25176;51.060;3.720;2022-10-16T09:12:45;27.80;64.80
39493;DHT22;25176;51.060;3.720;2022-10-16T09:17:45;30.50;60.50
39493;DHT22;25176;51.060;3.720;2022-10-16T09:21:15;32.60;59.00
39493;DHT22;25176;51.060;3.720;2022-10-16T09:23:16;33.60;56.60
39493;DHT22;25176;51.060;3.720;2022-10-16T09:25:43;33.50;56.50
39493;DHT22;25176;51.060;3.720;2022-10-16T09:28:09;34.50;54.30
39493;DHT22;25176;51.060;3.720;2022-10-16T09:30:35;34.60;54.20
39493;DHT22;25176;51.060;3.720;2022-10-16T09:33:02;34.60;53.90
39493;DHT22;25176;51.060;3.720;2022-10-16T09:38:27;34.30;53.30
39493;DHT22;25176;51.060;3.720;2022-10-16T09:40:53;33.80;53.80
39493;DHT22;25176;51.060;3.720;2022-10-16T09:45:58;32.80;54.70
39493;DHT22;25176;51.060;3.720;2022-10-16T09:48:25;34.40;53.90
39493;DHT22;25176;51.060;3.720;2022-10-16T09:50:55;35.10;52.30
39493;DHT22;25176;51.060;3.720;2022-10-16T09:53:21;34.50;52.00
39493;DHT22;25176;51.060;3.720;2022-10-16T09:55:48;34.80;52.00
39493;DHT22;25176;51.060;3.720;2022-10-16T09:58:14;35.10;52.10
39493;DHT22;25176;51.060;3.720;2022-10-16T10:00:41;34.50;51.80
39493;DHT22;25176;51.060;3.720;2022-10-16T10:03:10;33.20;52.30
39493;DHT22;25176;51.060;3.720;2022-10-16T10:05:36;30.60;55.50
39493;DHT22;25176;51.060;3.720;2022-10-16T10:08:04;28.90;58.40
39493;DHT22;25176;51.060;3.720;2022-10-16T10:10:36;28.60;58.90
39493;DHT22;25176;51.060;3.720;2022-10-16T10:13:04;27.60;60.00
39493;DHT22;25176;51.060;3.720;2022-10-16T10:15:33;26.30;62.90
39493;DHT22;25176;51.060;3.720;2022-10-16T10:17:58;25.00;65.90
39493;DHT22;25176;51.060;3.720;2022-10-16T10:20:31;24.50;67.10
39493;DHT22;25176;51.060;3.720;2022-10-16T10:23:00;24.10;68.10
39493;DHT22;25176;51.060;3.720;2022-10-16T10:30:53;23.80;69.50
39493;DHT22;25176;51.060;3.720;2022-10-16T10:33:55;23.80;69.70
39493;DHT22;25176;51.060;3.720;2022-10-16T10:38:51;23.00;72.00
39493;DHT22;25176;51.060;3.720;2022-10-16T10:44:15;22.50;73.00
39493;DHT22;25176;51.060;3.720;2022-10-16T10:46:43;22.40;73.60
39493;DHT22;25176;51.060;3.720;2022-10-16T10:51:53;22.00;75.40
39493;DHT22;25176;51.060;3.720;2022-10-16T10:54:32;22.10;74.40
39493;DHT22;25176;51.060;3.720;2022-10-16T10:57:14;22.30;74.50
39493;DHT22;25176;51.060;3.720;2022-10-16T11:02:37;22.30;74.50
39493;DHT22;25176;51.060;3.720;2022-10-16T11:05:19;22.10;75.20
39493;DHT22;25176;51.060;3.720;2022-10-16T11:07:49;21.70;75.70
39493;DHT22;25176;51.060;3.720;2022-10-16T11:10:20;21.60;76.70
39493;DHT22;25176;51.060;3.720;2022-10-16T11:12:51;21.40;76.50
39493;DHT22;25176;51.060;3.720;2022-10-16T11:15:25;21.20;76.40
39493;DHT22;25176;51.060;3.720;2022-10-16T11:20:22;21.70;74.90
39493;DHT22;25176;51.060;3.720;2022-10-16T11:22:50;21.40;75.80
39493;DHT22;25176;51.060;3.720;2022-10-16T11:25:24;21.10;75.90
39493;DHT22;25176;51.060;3.720;2022-10-16T11:30:45;20.90;76.00
39493;DHT22;25176;51.060;3.720;2022-10-16T11:33:19;20.70;76.40
39493;DHT22;25176;51.060;3.720;2022-10-16T11:35:56;20.80;76.30
39493;DHT22;25176;51.060;3.720;2022-10-16T11:40:48;20.80;77.00
39493;DHT22;25176;51.060;3.720;2022-10-16T11:43:17;21.10;77.10
39493;DHT22;25176;51.060;3.720;2022-10-16T11:45:46;21.30;76.40
39493;DHT22;25176;51.060;3.720;2022-10-16T11:48:20;21.20;76.40
39493;DHT22;25176;51.060;3.720;2022-10-16T11:51:36;21.10;76.80
39493;DHT22;25176;51.060;3.720;2022-10-16T11:56:15;21.00;77.10
39493;DHT22;25176;51.060;3.720;2022-10-16T12:01:26;21.00;76.60
39493;DHT22;25176;51.060;3.720;2022-10-16T12:11:47;20.70;77.40
39493;DHT22;25176;51.060;3.720;2022-10-16T12:16:38;20.30;78.10
39493;DHT22;25176;51.060;3.720;2022-10-16T12:19:11;20.10;78.10
39493;DHT22;25176;51.060;3.720;2022-10-16T12:21:37;20.10;78.50
39493;DHT22;25176;51.060;3.720;2022-10-16T12:24:03;20.10;77.60
39493;DHT22;25176;51.060;3.720;2022-10-16T12:26:31;20.00;78.80
39493;DHT22;25176;51.060;3.720;2022-10-16T12:29:10;20.10;78.50
39493;DHT22;25176;51.060;3.720;2022-10-16T12:31:38;20.10;78.20
39493;DHT22;25176;51.060;3.720;2022-10-16T12:34:15;20.00;77.60
39493;DHT22;25176;51.060;3.720;2022-10-16T12:36:45;20.20;77.60
39493;DHT22;25176;51.060;3.720;2022-10-16T12:39:16;20.50;77.20
39493;DHT22;25176;51.060;3.720;2022-10-16T12:41:45;20.70;76.70
39493;DHT22;25176;51.060;3.720;2022-10-16T12:44:21;21.00;75.70
39493;DHT22;25176;51.060;3.720;2022-10-16T12:46:48;20.90;76.00
39493;DHT22;25176;51.060;3.720;2022-10-16T12:49:21;21.00;76.60
39493;DHT22;25176;51.060;3.720;2022-10-16T12:51:49;21.00;76.30
39493;DHT22;25176;51.060;3.720;2022-10-16T12:54:29;21.10;76.40
39493;DHT22;25176;51.060;3.720;2022-10-16T13:29:44;20.70;77.90
39493;DHT22;25176;51.060;3.720;2022-10-16T13:32:10;20.70;78.30
39493;DHT22;25176;51.060;3.720;2022-10-16T13:34:44;21.00;76.90
39493;DHT22;25176;51.060;3.720;2022-10-16T13:37:17;21.20;77.20
39493;DHT22;25176;51.060;3.720;2022-10-16T13:39:42;21.50;77.00
39493;DHT22;25176;51.060;3.720;2022-10-16T13:42:12;21.30;76.90
39493;DHT22;25176;51.060;3.720;2022-10-16T13:44:40;21.50;76.60
39493;DHT22;25176;51.060;3.720;2022-10-16T13:47:20;21.70;75.90
39493;DHT22;25176;51.060;3.720;2022-10-16T13:49:46;21.80;75.80
39493;DHT22;25176;51.060;3.720;2022-10-16T13:52:18;21.80;75.50
39493;DHT22;25176;51.060;3.720;2022-10-16T13:54:45;21.60;76.00
39493;DHT22;25176;51.060;3.720;2022-10-16T13:57:14;20.50;79.10
39493;DHT22;25176;51.060;3.720;2022-10-16T13:59:39;20.10;80.90
39493;DHT22;25176;51.060;3.720;2022-10-16T14:04:45;19.70;82.10
39493;DHT22;25176;51.060;3.720;2022-10-16T14:07:14;19.70;83.00
39493;DHT22;25176;51.060;3.720;2022-10-16T14:09:47;19.80;82.40
39493;DHT22;25176;51.060;3.720;2022-10-16T14:12:13;20.10;81.50
39493;DHT22;25176;51.060;3.720;2022-10-16T14:14:45;20.20;81.50
39493;DHT22;25176;51.060;3.720;2022-10-16T14:17:18;20.30;81.70
39493;DHT22;25176;51.060;3.720;2022-10-16T14:19:48;20.00;81.60
39493;DHT22;25176;51.060;3.720;2022-10-16T14:24:58;20.30;82.00
39493;DHT22;25176;51.060;3.720;2022-10-16T14:27:26;20.30;82.20
39493;DHT22;25176;51.060;3.720;2022-10-16T14:30:05;20.10;82.40
39493;DHT22;25176;51.060;3.720;2022-10-16T14:32:33;20.00;82.80
39493;DHT22;25176;51.060;3.720;2022-10-16T14:34:59;20.00;82.90
39493;DHT22;25176;51.060;3.720;2022-10-16T14:37:28;19.90;82.10
39493;DHT22;25176;51.060;3.720;2022-10-16T14:39:54;19.60;83.70
39493;DHT22;25176;51.060;3.720;2022-10-16T14:42:21;19.60;84.20
39493;DHT22;25176;51.060;3.720;2022-10-16T14:44:49;19.50;83.50
39493;DHT22;25176;51.060;3.720;2022-10-16T14:47:18;19.40;84.30
39493;DHT22;25176;51.060;3.720;2022-10-16T14:49:49;19.60;83.60
39493;DHT22;25176;51.060;3.720;2022-10-16T14:52:15;19.80;83.40
39493;DHT22;25176;51.060;3.720;2022-10-16T14:54:41;19.90;81.90
39493;DHT22;25176;51.060;3.720;2022-10-16T14:57:28;20.00;81.40
39493;DHT22;25176;51.060;3.720;2022-10-16T14:59:52;20.20;81.20
39493;DHT22;25176;51.060;3.720;2022-10-16T15:02:20;20.40;80.20
39493;DHT22;25176;51.060;3.720;2022-10-16T15:04:48;20.20;80.40
39493;DHT22;25176;51.060;3.720;2022-10-16T15:07:13;19.90;81.10
39493;DHT22;25176;51.060;3.720;2022-10-16T15:09:39;19.80;81.90
39493;DHT22;25176;51.060;3.720;2022-10-16T15:12:04;19.90;81.80
39493;DHT22;25176;51.060;3.720;2022-10-16T15:14:30;19.80;81.90
39493;DHT22;25176;51.060;3.720;2022-10-16T15:16:55;19.80;82.10
39493;DHT22;25176;51.060;3.720;2022-10-16T15:19:21;19.80;82.70
39493;DHT22;25176;51.060;3.720;2022-10-16T15:21:46;19.90;82.70
39493;DHT22;25176;51.060;3.720;2022-10-16T15:24:12;19.90;82.90
39493;DHT22;25176;51.060;3.720;2022-10-16T15:26:38;19.90;83.10
39493;DHT22;25176;51.060;3.720;2022-10-16T15:29:04;20.00;83.00
39493;DHT22;25176;51.060;3.720;2022-10-16T15:31:30;19.90;82.90
39493;DHT22;25176;51.060;3.720;2022-10-16T15:33:55;19.80;83.90
39493;DHT22;25176;51.060;3.720;2022-10-16T15:36:33;19.50;84.50
39493;DHT22;25176;51.060;3.720;2022-10-16T15:39:02;19.30;85.10
39493;DHT22;25176;51.060;3.720;2022-10-16T15:41:27;19.30;85.30
39493;DHT22;25176;51.060;3.720;2022-10-16T15:43:53;19.40;85.20
39493;DHT22;25176;51.060;3.720;2022-10-16T15:46:19;19.40;85.00
39493;DHT22;25176;51.060;3.720;2022-10-16T15:48:45;19.50;84.40
39493;DHT22;25176;51.060;3.720;2022-10-16T15:51:10;19.40;84.80
39493;DHT22;25176;51.060;3.720;2022-10-16T15:53:36;19.20;85.80
39493;DHT22;25176;51.060;3.720;2022-10-16T15:56:05;19.20;86.10
39493;DHT22;25176;51.060;3.720;2022-10-16T15:58:31;19.20;86.00
39493;DHT22;25176;51.060;3.720;2022-10-16T16:00:57;19.20;86.10
39493;DHT22;25176;51.060;3.720;2022-10-16T16:03:23;19.00;87.30
39493;DHT22;25176;51.060;3.720;2022-10-16T16:05:48;19.00;87.30
39493;DHT22;25176;51.060;3.720;2022-10-16T16:08:14;19.10;86.90
39493;DHT22;25176;51.060;3.720;2022-10-16T16:10:39;19.00;87.10
39493;DHT22;25176;51.060;3.720;2022-10-16T16:13:05;19.10;87.10
39493;DHT22;25176;51.060;3.720;2022-10-16T16:15:30;19.10;87.20
39493;DHT22;25176;51.060;3.720;2022-10-16T16:17:56;19.00;87.60
39493;DHT22;25176;51.060;3.720;2022-10-16T16:20:21;19.00;87.70
39493;DHT22;25176;51.060;3.720;2022-10-16T16:22:47;19.00;88.00
39493;DHT22;25176;51.060;3.720;2022-10-16T16:25:12;19.00;88.20
39493;DHT22;25176;51.060;3.720;2022-10-16T16:27:38;18.90;88.50
39493;DHT22;25176;51.060;3.720;2022-10-16T16:30:04;18.80;89.20
39493;DHT22;25176;51.060;3.720;2022-10-16T16:32:30;18.80;89.40
39493;DHT22;25176;51.060;3.720;2022-10-16T16:34:56;18.90;89.20
39493;DHT22;25176;51.060;3.720;2022-10-16T16:37:21;18.80;89.70
39493;DHT22;25176;51.060;3.720;2022-10-16T16:39:46;18.90;89.50
39493;DHT22;25176;51.060;3.720;2022-10-16T16:42:12;19.00;89.80
39493;DHT22;25176;51.060;3.720;2022-10-16T16:44:37;18.90;89.70
39493;DHT22;25176;51.060;3.720;2022-10-16T16:47:03;19.10;89.60
39493;DHT22;25176;51.060;3.720;2022-10-16T16:49:29;19.10;89.70
39493;DHT22;25176;51.060;3.720;2022-10-16T16:51:55;19.10;89.90
39493;DHT22;25176;51.060;3.720;2022-10-16T16:54:20;19.00;89.80
39493;DHT22;25176;51.060;3.720;2022-10-16T16:56:46;18.90;90.20
39493;DHT22;25176;51.060;3.720;2022-10-16T16:59:12;18.90;90.30
39493;DHT22;25176;51.060;3.720;2022-10-16T17:01:38;18.90;90.50
39493;DHT22;25176;51.060;3.720;2022-10-16T17:04:03;19.00;90.40
39493;DHT22;25176;51.060;3.720;2022-10-16T17:06:30;19.00;90.40
39493;DHT22;25176;51.060;3.720;2022-10-16T17:08:56;19.10;90.40
39493;DHT22;25176;51.060;3.720;2022-10-16T17:11:22;19.00;90.40
39493;DHT22;25176;51.060;3.720;2022-10-16T17:13:49;19.00;90.60
39493;DHT22;25176;51.060;3.720;2022-10-16T17:16:15;19.00;90.70
39493;DHT22;25176;51.060;3.720;2022-10-16T17:18:40;18.80;91.10